Time;durP1;ratioP1;P1;durP2;ratioP2;P2;SDS_P1;SDS_P2;PMS_P1;PMS_P2;Temp;Humidity;BMP_temperature;BMP_pressure;BME280_temperature;BME280_humidity;BME280_pressure;Samples;Min_cycle;Max_cycle;Signal;HPM_P1;HPM_P2
2023/10/23 00:01:38;;;;;;;5.18;2.70;;;7.60;99.90;;;;;;5113606;28;20085;-50
2023/10/23 00:04:07;;;;;;;6.00;2.80;;;7.50;99.90;;;;;;5113338;28;20044;-48
2023/10/23 00:06:33;;;;;;;;;;;7.50;99.90;;;;;;5113420;28;20039;-50
2023/10/23 00:08:59;;;;;;;4.85;3.20;;;7.60;99.90;;;;;;5112843;28;19922;-50
2023/10/23 00:11:28;;;;;;;4.20;2.63;;;7.60;99.90;;;;;;5110134;28;20063;-48
2023/10/23 00:13:54;;;;;;;8.30;2.95;;;7.60;99.90;;;;;;5112953;28;20040;-48
2023/10/23 00:16:20;;;;;;;4.57;2.70;;;7.60;99.90;;;;;;5113521;28;20032;-48
2023/10/23 00:18:46;;;;;;;4.78;2.72;;;7.60;99.90;;;;;;5112837;28;20145;-46
2023/10/23 00:21:16;;;;;;;4.80;2.80;;;7.50;99.90;;;;;;5113135;28;20067;-46
2023/10/23 00:23:42;;;;;;;5.93;2.80;;;7.50;99.90;;;;;;5112809;28;20032;-46
2023/10/23 00:26:08;;;;;;;3.92;2.70;;;7.40;99.90;;;;;;5112977;28;20047;-47
2023/10/23 00:28:34;;;;;;;5.47;3.15;;;7.50;99.90;;;;;;5113021;28;20040;-48
2023/10/23 00:31:00;;;;;;;8.38;4.22;;;7.40;99.90;;;;;;5113051;28;20093;-47
2023/10/23 00:33:26;;;;;;;4.50;3.30;;;7.40;99.90;;;;;;5112514;28;20039;-46
2023/10/23 00:35:52;;;;;;;3.28;2.70;;;7.40;99.90;;;;;;5112914;28;20415;-49
2023/10/23 00:38:18;;;;;;;6.13;3.17;;;7.40;99.90;;;;;;5112620;28;20047;-46
2023/10/23 00:40:44;;;;;;;4.25;2.92;;;7.40;99.90;;;;;;5112358;28;20047;-46
2023/10/23 00:43:23;;;;;;;3.88;3.20;;;7.30;99.90;;;;;;5112555;28;20085;-45
2023/10/23 00:45:50;;;;;;;5.43;3.03;;;7.30;99.90;;;;;;5112558;28;20039;-45
2023/10/23 00:48:19;;;;;;;4.93;3.80;;;7.40;99.90;;;;;;5112397;28;20421;-46
2023/10/23 00:50:46;;;;;;;4.70;3.17;;;7.30;99.90;;;;;;5112410;28;20147;-47
2023/10/23 00:53:12;;;;;;;6.38;4.05;;;7.30;99.90;;;;;;5112112;28;20039;-44
2023/10/23 00:55:39;;;;;;;4.97;3.92;;;7.30;99.90;;;;;;5112672;28;20118;-45
2023/10/23 00:58:05;;;;;;;6.25;3.67;;;7.30;99.90;;;;;;5112304;28;20036;-46
2023/10/23 01:00:31;;;;;;;5.35;3.13;;;7.20;99.90;;;;;;5112271;28;20401;-45
2023/10/23 01:02:57;;;;;;;5.13;3.78;;;7.30;99.90;;;;;;5112190;28;20046;-46
2023/10/23 01:05:23;;;;;;;6.40;4.18;;;7.30;99.90;;;;;;5112328;28;20488;-44
2023/10/23 01:07:49;;;;;;;6.60;4.13;;;7.20;99.90;;;;;;5111369;28;20039;-45
2023/10/23 01:10:15;;;;;;;5.18;3.55;;;7.20;99.90;;;;;;5101753;28;20059;-45
2023/10/23 01:12:41;;;;;;;6.07;3.70;;;7.20;99.90;;;;;;5092135;28;20032;-50
2023/10/23 01:15:07;;;;;;;4.78;4.05;;;7.20;99.90;;;;;;5091924;28;20123;-45
2023/10/23 01:17:33;;;;;;;7.63;3.83;;;7.10;99.90;;;;;;5091735;28;20115;-46
2023/10/23 01:19:58;;;;;;;5.50;4.57;;;7.10;99.90;;;;;;5091609;28;20119;-46
2023/10/23 01:22:24;;;;;;;6.47;4.03;;;7.10;99.90;;;;;;5091686;28;20089;-45
2023/10/23 01:24:51;;;;;;;5.18;4.22;;;7.10;99.90;;;;;;5091956;28;20039;-46
2023/10/23 01:27:17;;;;;;;7.85;4.60;;;7.00;99.90;;;;;;5091777;28;20485;-45
2023/10/23 01:29:43;;;;;;;7.30;4.50;;;7.00;99.90;;;;;;5091939;28;20065;-43
2023/10/23 01:32:10;;;;;;;6.25;4.45;;;7.00;99.90;;;;;;5091743;28;20044;-44
2023/10/23 01:34:36;;;;;;;8.45;4.80;;;7.10;99.90;;;;;;5091916;28;20119;-45
2023/10/23 01:37:01;;;;;;;10.02;4.85;;;7.10;99.90;;;;;;5073352;28;20174;-45
2023/10/23 01:39:27;;;;;;;7.18;4.65;;;7.20;99.90;;;;;;5091958;28;20048;-45
2023/10/23 01:41:53;;;;;;;5.72;4.28;;;7.10;99.90;;;;;;5091948;28;20770;-44
2023/10/23 01:44:18;;;;;;;8.80;5.07;;;7.10;99.90;;;;;;5073603;28;20106;-46
2023/10/23 01:46:44;;;;;;;6.88;4.20;;;7.10;99.90;;;;;;5091503;28;20058;-44
2023/10/23 01:49:10;;;;;;;9.77;5.43;;;7.10;99.90;;;;;;5091470;28;20044;-44
2023/10/23 01:51:36;;;;;;;12.00;5.70;;;7.10;99.90;;;;;;5091447;28;20074;-45
2023/10/23 01:54:01;;;;;;;8.88;5.55;;;7.00;99.90;;;;;;5091407;28;20040;-44
2023/10/23 01:56:27;;;;;;;7.43;5.05;;;7.00;99.90;;;;;;5091748;28;20043;-47
2023/10/23 01:58:53;;;;;;;6.45;4.72;;;7.00;99.90;;;;;;5091223;28;20455;-44
2023/10/23 02:01:23;;;;;;;6.97;4.88;;;7.00;99.90;;;;;;5091298;28;20104;-51
2023/10/23 02:03:49;;;;;;;8.43;4.88;;;6.90;99.90;;;;;;5073180;28;20036;-48
2023/10/23 02:06:15;;;;;;;9.80;5.18;;;6.90;99.90;;;;;;5082973;28;20031;-45
2023/10/23 02:08:41;;;;;;;6.55;4.50;;;6.80;99.90;;;;;;5091572;28;20028;-46
2023/10/23 02:11:08;;;;;;;4.80;4.28;;;6.80;99.90;;;;;;5090590;28;20059;-45
2023/10/23 02:13:34;;;;;;;11.20;5.38;;;6.80;99.90;;;;;;5117198;28;20048;-46
2023/10/23 02:16:00;;;;;;;6.88;5.00;;;6.90;99.90;;;;;;5111775;28;20051;-47
2023/10/23 02:18:26;;;;;;;6.80;4.68;;;6.90;99.90;;;;;;5113753;28;20040;-45
2023/10/23 02:20:52;;;;;;;7.25;5.13;;;6.80;99.90;;;;;;5115434;28;20047;-46
2023/10/23 02:23:18;;;;;;;10.45;5.03;;;6.80;99.90;;;;;;5115581;28;20093;-44
2023/10/23 02:25:43;;;;;;;5.90;4.25;;;6.80;99.90;;;;;;5115445;28;20035;-44
2023/10/23 02:28:09;;;;;;;7.25;4.50;;;6.80;99.90;;;;;;5115336;28;20074;-44
2023/10/23 02:30:38;;;;;;;5.10;4.07;;;6.70;99.90;;;;;;5115672;28;20039;-46
2023/10/23 02:33:03;;;;;;;5.82;4.43;;;6.70;99.90;;;;;;5115081;28;20043;-43
2023/10/23 02:35:29;;;;;;;8.05;4.40;;;6.80;99.90;;;;;;5114743;28;20046;-44
2023/10/23 02:37:55;;;;;;;6.43;4.57;;;6.70;99.90;;;;;;5115351;28;20108;-47
2023/10/23 02:40:21;;;;;;;7.55;4.72;;;6.70;99.90;;;;;;5112995;28;20041;-47
2023/10/23 02:42:47;;;;;;;5.93;4.93;;;6.70;99.90;;;;;;5115109;28;20859;-43
2023/10/23 02:45:13;;;;;;;6.28;4.50;;;6.70;99.90;;;;;;5114753;28;20176;-46
2023/10/23 02:47:39;;;;;;;6.60;4.90;;;6.70;99.90;;;;;;5115032;28;20462;-46
2023/10/23 02:50:06;;;;;;;6.20;5.25;;;6.70;99.90;;;;;;5114715;28;20040;-46
2023/10/23 02:52:32;;;;;;;5.32;4.82;;;6.60;99.90;;;;;;5114705;28;20501;-46
2023/10/23 02:54:57;;;;;;;7.57;5.35;;;6.70;99.90;;;;;;5114864;28;20040;-49
2023/10/23 02:57:23;;;;;;;9.15;5.63;;;6.70;99.90;;;;;;5114611;28;20122;-50
2023/10/23 02:59:49;;;;;;;6.00;4.88;;;6.60;99.90;;;;;;5114430;28;20039;-47
2023/10/23 03:02:16;;;;;;;8.82;5.10;;;6.70;99.90;;;;;;5114243;28;20452;-45
2023/10/23 03:04:42;;;;;;;5.75;5.15;;;6.70;99.90;;;;;;5114225;28;20566;-49
2023/10/23 03:07:09;;;;;;;6.05;5.32;;;6.70;99.90;;;;;;5114821;28;20035;-46
2023/10/23 03:09:35;;;;;;;7.68;5.40;;;6.60;99.90;;;;;;5106218;28;20521;-46
2023/10/23 03:12:00;;;;;;;6.55;5.43;;;6.60;99.90;;;;;;5114503;28;20496;-49
2023/10/23 03:14:26;;;;;;;9.20;5.60;;;6.60;99.90;;;;;;5114308;28;20043;-46
2023/10/23 03:16:52;;;;;;;6.40;5.00;;;6.70;99.90;;;;;;5114390;28;20077;-47
2023/10/23 03:19:19;;;;;;;6.20;4.88;;;6.70;99.90;;;;;;5114047;28;20098;-47
2023/10/23 03:21:45;;;;;;;6.15;5.55;;;6.60;99.90;;;;;;5113918;28;20035;-45
2023/10/23 03:24:10;;;;;;;10.40;5.60;;;6.60;99.90;;;;;;5114446;28;20036;-47
2023/10/23 03:26:36;;;;;;;7.07;5.93;;;6.60;99.90;;;;;;5113993;28;20038;-46
2023/10/23 03:29:03;;;;;;;7.30;5.50;;;6.60;99.90;;;;;;5113692;28;20063;-46
2023/10/23 03:31:32;;;;;;;6.90;5.72;;;6.60;99.90;;;;;;5113971;28;20112;-48
2023/10/23 03:33:58;;;;;;;7.97;6.45;;;6.50;99.90;;;;;;5114021;28;20036;-46
2023/10/23 03:36:24;;;;;;;7.55;5.55;;;6.50;99.90;;;;;;5113965;28;20036;-45
2023/10/23 03:38:50;;;;;;;10.18;6.32;;;6.50;99.90;;;;;;5113363;28;20050;-46
2023/10/23 03:41:15;;;;;;;7.97;6.68;;;6.50;99.90;;;;;;5113782;28;20127;-52
2023/10/23 03:43:41;;;;;;;7.22;6.40;;;6.40;99.90;;;;;;5113582;28;20028;-46
2023/10/23 03:46:07;;;;;;;11.57;7.03;;;6.50;99.90;;;;;;5113668;28;20450;-46
2023/10/23 03:48:36;;;;;;;11.10;7.03;;;6.50;99.90;;;;;;5113821;28;20027;-48
2023/10/23 03:51:02;;;;;;;8.13;6.18;;;6.40;99.90;;;;;;5113840;28;20036;-48
2023/10/23 03:53:28;;;;;;;10.40;7.10;;;6.40;99.90;;;;;;5113694;28;20046;-47
2023/10/23 03:55:55;;;;;;;12.30;7.05;;;6.50;99.90;;;;;;5113501;28;20496;-48
2023/10/23 03:58:21;;;;;;;11.27;6.38;;;6.40;99.90;;;;;;5095241;28;20038;-50
2023/10/23 04:00:51;;;;;;;10.02;7.00;;;6.40;99.90;;;;;;5113180;28;20075;-51
2023/10/23 04:03:17;;;;;;;11.55;8.15;;;6.30;99.90;;;;;;5113491;28;20034;-47
2023/10/23 04:05:43;;;;;;;10.85;7.03;;;6.40;99.90;;;;;;5113687;28;20525;-46
2023/10/23 04:08:09;;;;;;;9.43;7.35;;;6.40;99.90;;;;;;5113306;28;20035;-46
2023/10/23 04:10:35;;;;;;;7.43;6.00;;;6.40;99.90;;;;;;5113044;28;20052;-48
2023/10/23 04:13:01;;;;;;;8.10;6.40;;;6.40;99.90;;;;;;5113333;28;20059;-47
2023/10/23 04:15:27;;;;;;;9.05;6.82;;;6.40;99.90;;;;;;5112794;28;20126;-45
2023/10/23 04:17:53;;;;;;;8.98;6.45;;;6.40;99.90;;;;;;5113421;28;20115;-46
2023/10/23 04:20:19;;;;;;;8.90;6.65;;;6.40;99.90;;;;;;5113029;28;20119;-46
2023/10/23 04:22:44;;;;;;;7.28;5.95;;;6.40;99.90;;;;;;5113011;28;20036;-46
2023/10/23 04:25:10;;;;;;;8.50;6.95;;;6.30;99.90;;;;;;5112934;28;20043;-44
2023/10/23 04:27:36;;;;;;;8.00;6.20;;;6.30;99.90;;;;;;5113030;28;20039;-47
2023/10/23 04:30:05;;;;;;;9.48;6.20;;;6.40;99.90;;;;;;5118675;27;20070;-48
2023/10/23 04:32:31;;;;;;;10.30;7.30;;;6.30;99.90;;;;;;5105664;28;20035;-45
2023/10/23 04:34:56;;;;;;;9.50;6.57;;;6.20;99.90;;;;;;5112822;28;20076;-46
2023/10/23 04:37:22;;;;;;;12.65;6.30;;;6.20;99.90;;;;;;5113683;27;20039;-46
2023/10/23 04:39:48;;;;;;;9.63;6.53;;;6.20;99.90;;;;;;5112537;28;20035;-44
2023/10/23 04:42:13;;;;;;;6.85;5.55;;;6.30;99.90;;;;;;5111641;28;20040;-48
2023/10/23 04:44:39;;;;;;;10.00;6.65;;;6.30;99.90;;;;;;5112453;28;20084;-44
2023/10/23 04:47:05;;;;;;;7.20;5.97;;;6.30;99.90;;;;;;5112491;28;20039;-45
2023/10/23 04:49:31;;;;;;;8.85;7.03;;;6.30;99.90;;;;;;5112562;28;20047;-49
2023/10/23 04:51:57;;;;;;;7.78;6.97;;;6.30;99.90;;;;;;5112709;28;20037;-46
2023/10/23 04:54:22;;;;;;;6.45;5.80;;;6.20;99.90;;;;;;5112300;28;20108;-46
2023/10/23 04:56:48;;;;;;;7.82;5.60;;;6.30;99.90;;;;;;5112355;28;20075;-46
2023/10/23 04:59:13;;;;;;;8.35;7.05;;;6.20;99.90;;;;;;5111961;28;20465;-45
2023/10/23 05:01:39;;;;;;;8.10;7.05;;;6.20;99.90;;;;;;5108841;28;20470;-47
2023/10/23 05:04:05;;;;;;;8.15;6.15;;;6.10;99.90;;;;;;5111605;28;20031;-47
2023/10/23 05:06:31;;;;;;;9.40;7.13;;;6.20;99.90;;;;;;5108125;28;20152;-46
2023/10/23 05:08:57;;;;;;;8.15;6.53;;;6.10;99.90;;;;;;5110697;27;20077;-46
2023/10/23 05:11:22;;;;;;;7.38;6.03;;;6.10;99.90;;;;;;5111629;28;20607;-46
2023/10/23 05:13:49;;;;;;;8.10;6.18;;;6.00;99.90;;;;;;5107312;28;20032;-45
2023/10/23 05:16:15;;;;;;;8.55;6.90;;;6.00;99.90;;;;;;5111256;28;20106;-46
2023/10/23 05:18:41;;;;;;;7.95;6.78;;;6.10;99.90;;;;;;5111147;28;20155;-46
2023/10/23 05:21:11;;;;;;;7.28;6.13;;;6.10;99.90;;;;;;5107555;28;20054;-45
2023/10/23 05:23:40;;;;;;;12.25;7.45;;;6.10;99.90;;;;;;5072681;28;20043;-46
2023/10/23 05:26:07;;;;;;;9.05;7.13;;;6.10;99.90;;;;;;5105269;28;20028;-47
2023/10/23 05:28:33;;;;;;;8.60;6.47;;;6.10;99.90;;;;;;5111419;28;20118;-46
2023/10/23 05:30:58;;;;;;;7.15;6.22;;;6.10;99.90;;;;;;5111304;28;20158;-47
2023/10/23 05:33:25;;;;;;;9.55;7.13;;;6.10;99.90;;;;;;5110996;28;20071;-45
2023/10/23 05:36:04;;;;;;;9.88;7.20;;;6.10;99.90;;;;;;5111465;28;20038;-45
2023/10/23 05:38:31;;;;;;;10.95;6.68;;;6.10;99.90;;;;;;5111245;28;20050;-46
2023/10/23 05:40:57;;;;;;;8.57;6.40;;;6.10;99.90;;;;;;5111525;28;20035;-45
2023/10/23 05:43:24;;;;;;;11.40;6.50;;;6.10;99.90;;;;;;5111317;28;20067;-45
2023/10/23 05:45:50;;;;;;;9.13;7.97;;;6.10;99.90;;;;;;5103938;28;20028;-50
2023/10/23 05:48:15;;;;;;;9.82;7.18;;;6.10;99.90;;;;;;5106564;28;20066;-46
2023/10/23 05:50:41;;;;;;;10.38;7.10;;;6.00;99.90;;;;;;5103044;28;20111;-46
2023/10/23 05:53:07;;;;;;;9.10;7.55;;;6.10;99.90;;;;;;5113805;28;20035;-50
2023/10/23 05:55:35;;;;;;;9.75;7.10;;;6.10;99.90;;;;;;5116029;28;20547;-47
2023/10/23 05:58:02;;;;;;;7.72;6.93;;;6.10;99.90;;;;;;5115822;28;20031;-46
2023/10/23 06:00:28;;;;;;;9.15;7.35;;;6.00;99.90;;;;;;5113093;28;20100;-48
2023/10/23 06:02:54;;;;;;;12.07;7.28;;;6.00;99.90;;;;;;5114350;28;20037;-45
2023/10/23 06:05:19;;;;;;;10.45;8.43;;;6.00;99.90;;;;;;5091092;28;20346;-46
2023/10/23 06:07:45;;;;;;;9.82;8.00;;;6.10;99.90;;;;;;5115359;28;20039;-51
2023/10/23 06:10:11;;;;;;;9.05;7.38;;;6.00;99.90;;;;;;5115449;28;20051;-47
2023/10/23 06:12:36;;;;;;;7.97;6.75;;;6.00;99.90;;;;;;5115540;28;20047;-46
2023/10/23 06:15:03;;;;;;;9.90;8.18;;;6.10;99.90;;;;;;5112370;27;20489;-47
2023/10/23 06:17:29;;;;;;;9.43;8.00;;;6.10;99.90;;;;;;5112915;27;20490;-46
2023/10/23 06:19:54;;;;;;;19.35;16.20;;;6.10;99.90;;;;;;5114845;28;20047;-47
2023/10/23 06:22:20;;;;;;;11.68;10.10;;;5.40;99.90;;;;;;5114327;28;20039;-46
2023/10/23 06:24:46;;;;;;;15.40;11.90;;;6.00;99.90;;;;;;5114982;28;20089;-45
2023/10/23 06:27:11;;;;;;;9.27;7.93;;;6.00;99.90;;;;;;5115376;28;20038;-46
2023/10/23 06:29:37;;;;;;;13.98;8.18;;;6.00;99.90;;;;;;5115209;28;20047;-44
2023/10/23 06:32:03;;;;;;;11.18;8.07;;;6.00;99.90;;;;;;5115135;28;20035;-46
2023/10/23 06:34:29;;;;;;;8.63;7.63;;;6.00;99.90;;;;;;5115261;28;20109;-45
2023/10/23 06:36:56;;;;;;;12.63;8.65;;;6.00;99.90;;;;;;5114655;28;20043;-45
2023/10/23 06:39:21;;;;;;;8.40;7.50;;;6.10;99.90;;;;;;5114791;28;20043;-46
2023/10/23 06:41:50;;;;;;;9.38;7.47;;;6.00;99.90;;;;;;5114564;28;20042;-47
2023/10/23 06:44:15;;;;;;;11.87;8.47;;;6.00;99.90;;;;;;5114788;28;20128;-46
2023/10/23 06:46:41;;;;;;;10.23;8.40;;;6.00;99.90;;;;;;5114931;28;20064;-47
2023/10/23 06:49:07;;;;;;;9.30;8.30;;;6.00;99.90;;;;;;5114513;28;20036;-47
2023/10/23 06:51:32;;;;;;;10.95;8.82;;;6.10;99.90;;;;;;5114402;28;20039;-46
2023/10/23 06:53:58;;;;;;;16.77;10.80;;;6.20;99.90;;;;;;5114131;28;20059;-45
2023/10/23 06:56:24;;;;;;;21.90;17.58;;;6.20;99.90;;;;;;5114563;28;20105;-45
2023/10/23 06:58:50;;;;;;;17.85;14.35;;;6.20;99.90;;;;;;5114455;28;20084;-46
2023/10/23 07:01:16;;;;;;;17.77;13.02;;;6.30;99.90;;;;;;5114159;28;20429;-48
2023/10/23 07:03:41;;;;;;;15.55;10.52;;;6.40;99.90;;;;;;5113438;28;20036;-45
2023/10/23 07:06:08;;;;;;;13.13;10.13;;;6.50;99.90;;;;;;5113746;28;20074;-46
2023/10/23 07:08:34;;;;;;;12.98;9.65;;;6.50;99.90;;;;;;5114184;28;20084;-48
2023/10/23 07:11:00;;;;;;;14.27;10.23;;;6.60;99.90;;;;;;5097202;28;20052;-46
2023/10/23 07:13:26;;;;;;;11.70;9.93;;;6.70;99.90;;;;;;5093695;28;20054;-48
2023/10/23 07:15:51;;;;;;;17.50;11.18;;;6.80;99.90;;;;;;5093991;28;20115;-50
2023/10/23 07:18:17;;;;;;;11.63;10.43;;;6.90;99.90;;;;;;5093868;28;20381;-46
2023/10/23 07:20:57;;;;;;;14.85;10.02;;;7.20;99.90;;;;;;5093608;28;20048;-48
2023/10/23 07:23:23;;;;;;;13.10;10.02;;;7.40;99.90;;;;;;5093540;28;20032;-49
2023/10/23 07:25:59;;;;;;;10.90;9.48;;;7.80;99.90;;;;;;5093744;28;20047;-48
2023/10/23 07:28:24;;;;;;;12.82;9.52;;;8.10;99.90;;;;;;5058012;28;20051;-46
2023/10/23 07:30:50;;;;;;;12.50;9.27;;;8.50;99.90;;;;;;5075766;28;20066;-47
2023/10/23 07:33:16;;;;;;;9.95;7.72;;;8.90;99.90;;;;;;5093278;28;20036;-46
2023/10/23 07:35:41;;;;;;;8.75;7.82;;;9.40;99.90;;;;;;5093754;28;20563;-48
2023/10/23 07:38:07;;;;;;;12.05;7.90;;;9.80;99.90;;;;;;5093228;28;20043;-46
2023/10/23 07:40:33;;;;;;;10.55;7.15;;;10.20;99.90;;;;;;5093160;28;20040;-46
2023/10/23 07:42:58;;;;;;;6.63;6.03;;;10.50;99.90;;;;;;5093366;28;20043;-46
2023/10/23 07:45:24;;;;;;;7.55;6.38;;;10.80;99.90;;;;;;5093081;28;20123;-47
2023/10/23 07:47:50;;;;;;;8.95;6.45;;;11.10;99.90;;;;;;5092961;28;20074;-47
2023/10/23 07:50:16;;;;;;;6.55;5.82;;;11.30;99.90;;;;;;5093265;28;20057;-45
2023/10/23 07:52:42;;;;;;;8.30;5.97;;;11.50;99.90;;;;;;5093244;28;20051;-46
2023/10/23 07:55:08;;;;;;;7.97;6.30;;;11.80;99.90;;;;;;5093066;28;20036;-46
2023/10/23 07:57:34;;;;;;;10.10;6.47;;;12.00;99.90;;;;;;5092853;28;20532;-45
2023/10/23 07:59:59;;;;;;;9.80;6.47;;;12.10;99.90;;;;;;5092652;28;20044;-50
2023/10/23 08:02:25;;;;;;;7.60;5.93;;;12.40;99.90;;;;;;5092760;28;20485;-47
2023/10/23 08:04:50;;;;;;;6.30;5.70;;;12.70;99.90;;;;;;5092862;28;20024;-48
2023/10/23 08:07:16;;;;;;;7.20;6.30;;;12.90;99.90;;;;;;5093113;28;20490;-47
2023/10/23 08:09:42;;;;;;;7.65;6.07;;;13.10;99.90;;;;;;5092853;28;20569;-46
2023/10/23 08:12:08;;;;;;;6.30;5.50;;;13.20;99.90;;;;;;5092777;28;20497;-48
2023/10/23 08:14:34;;;;;;;6.63;5.90;;;13.50;99.90;;;;;;5092465;28;20048;-47
2023/10/23 08:16:59;;;;;;;7.55;5.45;;;13.80;99.90;;;;;;5092121;28;20042;-47
2023/10/23 08:19:26;;;;;;;6.50;5.35;;;14.00;99.90;;;;;;5092720;28;20505;-47
2023/10/23 08:21:52;;;;;;;6.18;5.57;;;14.10;99.90;;;;;;5092486;28;20032;-50
2023/10/23 08:24:17;;;;;;;7.03;5.80;;;14.40;99.90;;;;;;5074310;28;20047;-46
2023/10/23 08:26:43;;;;;;;7.80;5.68;;;14.50;99.90;;;;;;5092374;28;20405;-46
2023/10/23 08:29:09;;;;;;;7.28;5.53;;;14.70;99.90;;;;;;5074374;28;20044;-46
2023/10/23 08:31:34;;;;;;;8.35;5.95;;;14.80;99.90;;;;;;5091922;28;20463;-48
2023/10/23 08:34:00;;;;;;;6.13;5.35;;;15.10;99.90;;;;;;5092327;28;20067;-46
2023/10/23 08:36:26;;;;;;;6.05;5.45;;;15.10;99.90;;;;;;5092445;28;20078;-48
2023/10/23 08:38:51;;;;;;;6.50;4.90;;;15.30;99.90;;;;;;5092266;28;20028;-46
2023/10/23 08:41:17;;;;;;;8.68;6.55;;;15.40;99.90;;;;;;5092134;28;20060;-47
2023/10/23 08:43:43;;;;;;;7.28;5.78;;;15.40;99.90;;;;;;5092449;28;20491;-47
2023/10/23 08:46:09;;;;;;;7.10;5.70;;;15.20;99.90;;;;;;5091886;28;20028;-45
2023/10/23 08:48:38;;;;;;;8.00;5.43;;;15.10;99.90;;;;;;5092120;28;20397;-47
2023/10/23 08:51:06;;;;;;;7.20;5.72;;;15.00;99.90;;;;;;5091969;28;20529;-45
2023/10/23 08:53:33;;;;;;;9.30;5.53;;;14.80;99.90;;;;;;5092003;28;20042;-47
2023/10/23 08:56:05;;;;;;;7.47;5.47;;;14.70;99.90;;;;;;5091616;28;20036;-47
2023/10/23 08:58:36;;;;;;;5.50;5.00;;;14.50;99.90;;;;;;5091871;28;20092;-48
2023/10/23 09:01:03;;;;;;;9.25;5.60;;;14.30;99.90;;;;;;5073634;28;20047;-45
2023/10/23 09:03:32;;;;;;;8.23;5.97;;;14.20;99.90;;;;;;5091846;28;20039;-47
2023/10/23 09:05:58;;;;;;;6.03;5.15;;;14.10;99.90;;;;;;5091865;28;20078;-47
2023/10/23 09:08:27;;;;;;;7.30;5.05;;;14.10;99.90;;;;;;5091926;28;20044;-46
2023/10/23 09:11:00;;;;;;;6.78;5.30;;;13.90;99.90;;;;;;5091426;28;20510;-46
2023/10/23 09:13:32;;;;;;;9.70;5.47;;;13.80;99.90;;;;;;5091631;28;20366;-47
2023/10/23 09:15:58;;;;;;;8.27;5.20;;;13.70;99.90;;;;;;5091652;28;20052;-46
2023/10/23 09:18:23;;;;;;;5.75;5.13;;;13.70;99.90;;;;;;5091650;28;20035;-45
2023/10/23 09:20:49;;;;;;;9.05;5.72;;;13.50;99.90;;;;;;5091691;28;20040;-47
2023/10/23 09:23:15;;;;;;;7.65;5.78;;;13.50;99.90;;;;;;5091371;28;20036;-46
2023/10/23 09:25:42;;;;;;;6.22;5.57;;;13.40;99.90;;;;;;5091930;28;20040;-46
2023/10/23 09:28:11;;;;;;;4.95;4.45;;;13.30;99.90;;;;;;5096022;28;20427;-47
2023/10/23 09:30:37;;;;;;;5.85;5.25;;;13.30;99.90;;;;;;5098453;28;20039;-47
2023/10/23 09:33:06;;;;;;;5.95;5.35;;;13.40;99.90;;;;;;5098293;28;20079;-45
2023/10/23 09:35:32;;;;;;;7.20;5.07;;;13.30;99.90;;;;;;5098283;28;20044;-46
2023/10/23 09:37:58;;;;;;;10.02;5.95;;;13.20;99.90;;;;;;5098264;28;20040;-45
2023/10/23 09:40:24;;;;;;;6.57;5.35;;;13.30;99.90;;;;;;5097921;28;20047;-45
2023/10/23 09:42:51;;;;;;;6.82;4.43;;;13.30;99.90;;;;;;5098409;28;20060;-46
2023/10/23 09:45:16;;;;;;;4.72;4.20;;;13.40;99.90;;;;;;5098089;28;20114;-47
2023/10/23 09:47:45;;;;;;;4.88;4.18;;;13.60;99.90;;;;;;5098539;28;20556;-45
2023/10/23 09:50:11;;;;;;;4.30;3.90;;;13.60;99.90;;;;;;5097980;28;20039;-47
2023/10/23 09:52:37;;;;;;;6.78;4.07;;;13.60;99.90;;;;;;5098301;28;20055;-46
2023/10/23 09:55:09;;;;;;;5.55;4.18;;;13.70;99.90;;;;;;5098216;28;20044;-46
2023/10/23 09:57:40;;;;;;;8.07;4.22;;;13.80;99.90;;;;;;5098101;28;20058;-46
2023/10/23 10:00:17;;;;;;;4.93;4.18;;;13.80;99.90;;;;;;5097974;28;20035;-46
2023/10/23 10:02:53;;;;;;;8.65;4.47;;;13.80;99.90;;;;;;5098014;28;20469;-46
2023/10/23 10:05:33;;;;;;;7.72;4.43;;;13.90;99.90;;;;;;5097768;28;20068;-48
2023/10/23 10:08:03;;;;;;;5.80;4.43;;;13.90;99.90;;;;;;5080045;28;20173;-47
2023/10/23 10:10:30;;;;;;;3.47;3.17;;;13.90;99.90;;;;;;5097615;28;20085;-46
2023/10/23 10:12:57;;;;;;;5.57;3.38;;;13.90;99.90;;;;;;5097748;28;20417;-45
2023/10/23 10:15:23;;;;;;;5.78;3.03;;;14.00;99.90;;;;;;5097633;28;20044;-48
2023/10/23 10:17:49;;;;;;;4.43;3.40;;;13.90;99.90;;;;;;5097723;28;20043;-45
2023/10/23 10:20:19;;;;;;;5.63;2.80;;;13.90;99.90;;;;;;5098046;28;20040;-46
2023/10/23 10:22:56;;;;;;;6.10;3.47;;;13.90;99.90;;;;;;5079949;28;20111;-45
2023/10/23 10:25:22;;;;;;;4.72;3.30;;;14.00;99.90;;;;;;5097486;28;20036;-45
2023/10/23 10:28:03;;;;;;;2.97;2.42;;;14.00;99.90;;;;;;5097685;28;20024;-45
2023/10/23 10:30:42;;;;;;;2.88;2.58;;;14.00;99.90;;;;;;5097636;28;20119;-48
2023/10/23 10:33:10;;;;;;;8.30;2.95;;;14.00;99.90;;;;;;5097935;28;20048;-44
2023/10/23 10:35:36;;;;;;;5.38;2.15;;;14.10;99.90;;;;;;5097591;28;20482;-47
2023/10/23 10:38:03;;;;;;;6.75;2.40;;;14.10;99.90;;;;;;5097636;28;20043;-47
2023/10/23 10:41:01;;;;;;;3.92;2.13;;;14.20;99.90;;;;;;5094118;28;20036;-48
2023/10/23 10:43:34;;;;;;;3.67;2.60;;;14.10;99.90;;;;;;5094413;28;20043;-44
2023/10/23 10:46:02;;;;;;;6.63;3.08;;;14.20;99.90;;;;;;5094499;28;20073;-45
2023/10/23 10:48:50;;;;;;;5.07;2.80;;;14.20;99.90;;;;;;5094428;28;20044;-47
2023/10/23 10:51:20;;;;;;;5.18;2.50;;;14.20;99.90;;;;;;5094237;28;20173;-46
2023/10/23 10:53:47;;;;;;;3.78;2.40;;;14.30;99.90;;;;;;5094168;28;20044;-47
2023/10/23 10:56:13;;;;;;;7.20;1.88;;;14.40;99.90;;;;;;5094272;28;20036;-47
2023/10/23 10:58:43;;;;;;;3.55;1.60;;;14.50;99.90;;;;;;5094052;28;20040;-46
2023/10/23 11:01:09;;;;;;;5.80;1.60;;;14.50;99.90;;;;;;5075643;28;20047;-46
2023/10/23 11:03:36;;;;;;;4.32;1.75;;;14.50;99.90;;;;;;5093965;28;20043;-47
2023/10/23 11:06:05;;;;;;;2.00;1.17;;;14.60;99.90;;;;;;5094185;28;20071;-46
2023/10/23 11:08:31;;;;;;;2.58;0.90;;;14.60;99.90;;;;;;5094045;28;20036;-46
2023/10/23 11:11:00;;;;;;;1.27;0.80;;;14.70;99.90;;;;;;5093609;28;20460;-46
2023/10/23 11:13:26;;;;;;;;;;;14.80;99.90;;;;;;5094490;28;20070;-45
2023/10/23 11:15:55;;;;;;;1.40;0.70;;;14.70;99.90;;;;;;5093526;28;19943;-48
2023/10/23 11:18:21;;;;;;;2.53;1.02;;;14.80;99.90;;;;;;5093964;28;20044;-47
2023/10/23 11:20:47;;;;;;;2.55;0.93;;;14.90;99.90;;;;;;5093879;28;20044;-46
2023/10/23 11:23:14;;;;;;;3.65;1.60;;;14.90;99.90;;;;;;5093830;28;20036;-46
2023/10/23 11:25:40;;;;;;;2.58;1.65;;;15.00;99.90;;;;;;5093557;28;20032;-46
2023/10/23 11:28:06;;;;;;;5.13;2.20;;;15.00;99.90;;;;;;5093822;28;20043;-46
2023/10/23 11:30:43;;;;;;;4.78;2.50;;;15.00;99.90;;;;;;5093384;28;20086;-46
2023/10/23 11:33:08;;;;;;;6.18;2.72;;;15.20;99.90;;;;;;5093446;28;20450;-48
2023/10/23 11:35:34;;;;;;;3.05;2.75;;;15.30;99.90;;;;;;5093398;28;20048;-48
2023/10/23 11:38:00;;;;;;;5.05;3.08;;;15.30;99.90;;;;;;5093318;28;20485;-45
2023/10/23 11:40:26;;;;;;;6.32;3.10;;;15.40;99.90;;;;;;5092888;28;20036;-46
2023/10/23 11:42:56;;;;;;;3.58;3.22;;;15.40;99.90;;;;;;5093410;28;20452;-45
2023/10/23 11:45:22;;;;;;;5.63;3.22;;;15.40;99.90;;;;;;5092984;28;20105;-44
2023/10/23 11:47:51;;;;;;;4.75;2.85;;;15.40;99.90;;;;;;5081193;28;20122;-45
2023/10/23 11:50:17;;;;;;;;;;;15.30;99.90;;;;;;5092835;28;20066;-45
2023/10/23 11:52:48;;;;;;;3.58;1.90;;;15.30;99.90;;;;;;5092917;28;20284;-48
2023/10/23 11:55:18;;;;;;;3.40;1.90;;;15.30;99.90;;;;;;5092856;28;20058;-46
2023/10/23 11:57:50;;;;;;;7.38;2.60;;;15.40;99.90;;;;;;5092785;28;20081;-50
2023/10/23 12:00:18;;;;;;;2.80;1.92;;;15.30;99.90;;;;;;5093059;28;20036;-47
2023/10/23 12:02:47;;;;;;;3.00;1.90;;;15.40;99.90;;;;;;5092931;28;20144;-46
2023/10/23 12:05:20;;;;;;;2.67;1.60;;;15.40;99.90;;;;;;5092807;28;20034;-46
2023/10/23 12:07:52;;;;;;;6.00;2.20;;;15.40;99.90;;;;;;5092828;28;20048;-44
2023/10/23 12:10:20;;;;;;;5.25;2.97;;;15.40;99.90;;;;;;5092222;28;20059;-46
2023/10/23 12:12:47;;;;;;;5.90;3.50;;;15.40;99.90;;;;;;5092737;28;20523;-45
2023/10/23 12:15:15;;;;;;;7.00;2.50;;;15.40;99.90;;;;;;5092420;28;20424;-47
2023/10/23 12:17:41;;;;;;;5.25;2.33;;;15.30;99.90;;;;;;5092408;28;20493;-45
2023/10/23 12:20:09;;;;;;;2.72;2.30;;;15.40;99.90;;;;;;5092179;28;20032;-45
2023/10/23 12:22:46;;;;;;;4.85;2.75;;;15.30;99.90;;;;;;5092583;28;20055;-46
2023/10/23 12:25:13;;;;;;;4.05;2.10;;;15.30;99.90;;;;;;5092841;28;20047;-46
2023/10/23 12:27:40;;;;;;;6.82;3.28;;;15.30;99.90;;;;;;5092904;28;20028;-47
2023/10/23 12:30:07;;;;;;;4.00;2.83;;;15.20;99.90;;;;;;5092518;28;20834;-48
2023/10/23 12:32:34;;;;;;;3.40;2.00;;;15.20;99.90;;;;;;5092588;28;20048;-46
2023/10/23 12:35:03;;;;;;;5.43;2.60;;;15.20;99.90;;;;;;5092417;28;20036;-45
2023/10/23 12:37:30;;;;;;;8.80;3.17;;;15.20;99.90;;;;;;5092093;28;20482;-46
2023/10/23 12:39:58;;;;;;;9.35;5.13;;;15.20;99.90;;;;;;5092130;28;20054;-45
2023/10/23 12:42:24;;;;;;;7.10;4.82;;;15.20;99.90;;;;;;5091779;28;20655;-44
2023/10/23 12:44:50;;;;;;;7.15;4.68;;;15.20;99.90;;;;;;5092349;28;20114;-48
2023/10/23 12:47:17;;;;;;;6.50;4.10;;;15.20;99.90;;;;;;5091983;28;20036;-45
2023/10/23 12:49:43;;;;;;;8.85;5.80;;;15.10;99.90;;;;;;5092132;28;20097;-45